Time;durP1;ratioP1;P1;durP2;ratioP2;P2;SDS_P1;SDS_P2;PMS_P1;PMS_P2;Temp;Humidity;BMP_temperature;BMP_pressure;BME280_temperature;BME280_humidity;BME280_pressure;Samples;Min_cycle;Max_cycle;Signal;HPM_P1;HPM_P2
2021/06/28 00:02:12;;;;;;;7.80;1.95;;;;;;;;;;5054900;28;20107;-66
2021/06/28 00:04:38;;;;;;;5.18;2.13;;;;;;;;;;5053712;28;20393;-66
2021/06/28 00:07:04;;;;;;;5.93;1.75;;;;;;;;;;5054991;28;20036;-66
2021/06/28 00:09:30;;;;;;;7.22;2.00;;;26.30;57.60;;;;;;5055034;28;20408;-66
2021/06/28 00:11:56;;;;;;;2.47;1.70;;;25.60;58.20;;;;;;5053790;28;20113;-66
2021/06/28 00:14:22;;;;;;;4.85;1.95;;;25.50;58.30;;;;;;5055078;28;20029;-66
2021/06/28 00:16:47;;;;;;;5.25;1.77;;;25.50;58.60;;;;;;5054781;28;20584;-66
2021/06/28 00:19:13;;;;;;;3.45;1.70;;;25.50;59.00;;;;;;5054937;28;20033;-68
2021/06/28 00:21:39;;;;;;;4.97;1.90;;;25.50;59.30;;;;;;5054613;28;20143;-68
2021/06/28 00:24:08;;;;;;;4.55;1.85;;;;;;;;;;5054730;28;20115;-66
2021/06/28 00:26:35;;;;;;;4.47;1.85;;;;;;;;;;5054680;28;20032;-68
2021/06/28 00:29:01;;;;;;;12.15;2.05;;;;;;;;;;5054832;28;20044;-66
2021/06/28 00:31:27;;;;;;;4.65;1.80;;;;;;;;;;5054427;28;20021;-66
2021/06/28 00:33:53;;;;;;;3.75;2.00;;;;;;;;;;5054576;28;20032;-68
2021/06/28 00:36:19;;;;;;;5.68;1.98;;;;;;;;;;5054482;28;20065;-68
2021/06/28 00:38:45;;;;;;;5.65;2.00;;;;;;;;;;5054505;28;20021;-68
2021/06/28 00:41:11;;;;;;;9.23;2.30;;;;;;;;;;5054457;28;20053;-68
2021/06/28 00:43:37;;;;;;;6.72;2.00;;;;;;;;;;5053939;28;20041;-68
2021/06/28 00:46:03;;;;;;;3.25;1.92;;;;;;;;;;5054100;28;20040;-68
2021/06/28 00:48:29;;;;;;;10.18;1.73;;;;;;;;;;5054089;28;20037;-68
2021/06/28 00:50:56;;;;;;;5.20;1.90;;;;;;;;;;5054615;28;20025;-68
2021/06/28 00:53:23;;;;;;;9.07;2.20;;;;;;;;;;5053890;28;20385;-68
2021/06/28 00:55:51;;;;;;;3.33;1.83;;;;;;;;;;5054147;28;20111;-68
2021/06/28 00:58:17;;;;;;;6.28;1.90;;;;;;;;;;5052485;28;20430;-68
2021/06/28 01:00:44;;;;;;;5.78;2.00;;;;;;;;;;5051157;28;20021;-68
2021/06/28 01:03:10;;;;;;;2.53;1.90;;;;;;;;;;5050928;28;20444;-68
2021/06/28 01:05:37;;;;;;;4.38;1.80;;;;;;;;;;5052889;28;20021;-68
2021/06/28 01:08:04;;;;;;;4.70;2.03;;;;;;;;;;5053483;28;20114;-68
2021/06/28 01:10:30;;;;;;;5.18;2.00;;;;;;;;;;5053851;28;20075;-68
2021/06/28 01:12:57;;;;;;;6.50;2.00;;;;;;;;;;5053246;28;20017;-68
2021/06/28 01:15:23;;;;;;;5.57;2.10;;;;;;;;;;5053813;28;20424;-68
2021/06/28 01:17:50;;;;;;;6.63;1.98;;;;;;;;;;5053568;28;20017;-68
2021/06/28 01:20:17;;;;;;;10.48;2.38;;;;;;;;;;5053406;28;20029;-68
2021/06/28 01:22:45;;;;;;;10.32;2.53;;;;;;;;;;5052989;28;20052;-67
2021/06/28 01:25:13;;;;;;;7.97;2.38;;;;;;;;;;5053670;28;20107;-67
2021/06/28 01:27:40;;;;;;;10.40;2.50;;;;;;;;;;5053210;28;20086;-68
2021/06/28 01:30:07;;;;;;;7.18;2.08;;;;;;;;;;5053488;28;20374;-67
2021/06/28 01:32:33;;;;;;;6.63;2.13;;;;;;;;;;5053474;28;20032;-67
2021/06/28 01:34:59;;;;;;;5.13;2.00;;;;;;;;;;5052828;28;20025;-68
2021/06/28 01:37:26;;;;;;;14.65;2.40;;;;;;;;;;5053336;28;20082;-68
2021/06/28 01:39:54;;;;;;;3.83;2.00;;;;;;;;;;5053202;28;20025;-68
2021/06/28 01:42:21;;;;;;;5.63;1.90;;;;;;;;;;5053185;28;20432;-68
2021/06/28 01:44:47;;;;;;;6.28;1.90;;;;;;;;;;5053069;28;20061;-68
2021/06/28 01:47:13;;;;;;;5.75;1.70;;;;;;;;;;5052825;28;20397;-68
2021/06/28 01:49:39;;;;;;;6.97;1.83;;;;;;;;;;5052973;28;20025;-67
2021/06/28 01:52:06;;;;;;;2.90;1.85;;;;;;;;;;5052614;28;20104;-67
2021/06/28 01:54:32;;;;;;;3.17;2.00;;;;;;;;;;5052918;28;20029;-67
2021/06/28 01:56:59;;;;;;;3.80;1.90;;;;;;;;;;5052900;28;20039;-67
2021/06/28 01:59:32;;;;;;;7.38;1.90;;;;;;;;;;5051532;28;20061;-67
2021/06/28 02:01:59;;;;;;;5.15;1.85;;;;;;;;;;5052891;28;20033;-67
2021/06/28 02:04:26;;;;;;;4.10;2.13;;;;;;;;;;5052992;28;20045;-68
2021/06/28 02:06:52;;;;;;;9.32;2.03;;;;;;;;;;5052716;28;20039;-67
2021/06/28 02:09:18;;;;;;;5.10;1.80;;;;;;;;;;5052942;28;20040;-68
2021/06/28 02:11:45;;;;;;;5.90;2.03;;;;;;;;;;5052686;28;20021;-67
2021/06/28 02:14:11;;;;;;;9.60;2.63;;;;;;;;;;5052661;28;20021;-68
2021/06/28 02:16:37;;;;;;;5.50;1.95;;;;;;;;;;5052818;28;20104;-67
2021/06/28 02:19:03;;;;;;;4.15;2.00;;;;;;;;;;5052735;28;20503;-67
2021/06/28 02:21:29;;;;;;;8.18;2.10;;;;;;;;;;5052738;28;20025;-67
2021/06/28 02:23:55;;;;;;;5.05;2.00;;;;;;;;;;5052702;28;20384;-67
2021/06/28 02:26:21;;;;;;;6.85;2.15;;;;;;;;;;5052660;28;20025;-67
2021/06/28 02:28:49;;;;;;;4.75;2.20;;;;;;;;;;5052748;28;20040;-67
2021/06/28 02:31:17;;;;;;;9.95;2.60;;;;;;;;;;5053028;28;20032;-67
2021/06/28 02:33:43;;;;;;;7.90;1.95;;;;;;;;;;5052840;28;20021;-67
2021/06/28 02:36:09;;;;;;;8.30;2.40;;;;;;;;;;5056637;28;20017;-67
2021/06/28 02:38:36;;;;;;;10.77;2.15;;;;;;;;;;5056604;28;20071;-67
2021/06/28 02:41:03;;;;;;;6.30;2.10;;;;;;;;;;5056454;28;20112;-67
2021/06/28 02:43:29;;;;;;;6.78;1.90;;;;;;;;;;5056386;28;20040;-67
2021/06/28 02:45:55;;;;;;;6.30;2.00;;;;;;;;;;5056268;28;20036;-67
2021/06/28 02:48:21;;;;;;;5.68;2.00;;;;;;;;;;5056192;28;20067;-67
2021/06/28 02:50:47;;;;;;;7.03;2.17;;;;;;;;;;5056454;28;20113;-67
2021/06/28 02:53:16;;;;;;;10.80;2.45;;;;;;;;;;5056199;28;20035;-67
2021/06/28 02:55:42;;;;;;;14.50;2.70;;;;;;;;;;5056447;28;20091;-67
2021/06/28 02:58:08;;;;;;;14.52;2.80;;;;;;;;;;5056423;28;20451;-68
2021/06/28 03:00:34;;;;;;;12.85;2.67;;;;;;;;;;5056249;28;20389;-68
2021/06/28 03:03:00;;;;;;;7.13;2.15;;;;;;;;;;5056116;28;20047;-68
2021/06/28 03:05:27;;;;;;;16.05;2.53;;;;;;;;;;5056003;28;20100;-67
2021/06/28 03:07:54;;;;;;;5.10;2.28;;;;;;;;;;5055936;28;20025;-67
2021/06/28 03:10:19;;;;;;;7.07;2.60;;;25.10;58.70;;;;;;5056015;28;20028;-67
2021/06/28 03:12:45;;;;;;;11.45;3.03;;;23.90;61.80;;;;;;5055811;28;20481;-67
2021/06/28 03:15:15;;;;;;;5.68;2.35;;;23.80;61.90;;;;;;5055653;28;20032;-67
2021/06/28 03:17:41;;;;;;;8.50;3.00;;;23.80;62.20;;;;;;5056071;28;20071;-67
2021/06/28 03:20:10;;;;;;;6.65;2.30;;;23.80;62.00;;;;;;5056075;28;20032;-67
2021/06/28 03:22:38;;;;;;;9.93;2.67;;;23.80;62.20;;;;;;5055806;28;20519;-67
2021/06/28 03:25:06;;;;;;;5.15;2.28;;;23.80;62.10;;;;;;5054481;28;20035;-68
2021/06/28 03:27:32;;;;;;;9.77;2.75;;;23.80;62.00;;;;;;5055556;28;20017;-67
2021/06/28 03:29:58;;;;;;;7.20;2.22;;;23.70;61.90;;;;;;5055959;28;20028;-67
2021/06/28 03:32:23;;;;;;;3.63;2.20;;;23.70;62.00;;;;;;5055958;28;20040;-68
2021/06/28 03:34:49;;;;;;;9.00;2.75;;;23.70;62.30;;;;;;5055485;28;20063;-67
2021/06/28 03:37:15;;;;;;;9.15;2.40;;;23.70;62.00;;;;;;5055354;28;20029;-67
2021/06/28 03:39:40;;;;;;;10.82;2.90;;;23.70;61.90;;;;;;5055632;28;20025;-67
2021/06/28 03:42:06;;;;;;;12.90;3.33;;;23.70;61.80;;;;;;5055623;28;20056;-68
2021/06/28 03:44:32;;;;;;;9.10;2.85;;;23.70;61.70;;;;;;5055278;28;20049;-67
2021/06/28 03:46:58;;;;;;;7.53;2.42;;;;;;;;;;5055256;28;20086;-67
2021/06/28 03:49:24;;;;;;;10.05;2.88;;;;;;;;;;5055223;28;20033;-67
2021/06/28 03:51:50;;;;;;;14.45;2.72;;;;;;;;;;5055423;28;20407;-67
2021/06/28 03:54:16;;;;;;;16.77;2.67;;;;;;;;;;5055289;28;20047;-67
2021/06/28 03:56:42;;;;;;;10.13;2.42;;;;;;;;;;5055357;28;20095;-67
2021/06/28 03:59:08;;;;;;;17.52;3.08;;;;;;;;;;5055073;28;20150;-67
2021/06/28 04:01:35;;;;;;;20.95;3.83;;;;;;;;;;5055158;28;20033;-67
2021/06/28 04:04:01;;;;;;;18.63;3.05;;;;;;;;;;5054902;28;20493;-67
2021/06/28 04:06:27;;;;;;;11.60;2.40;;;;;;;;;;5054957;28;20033;-67
2021/06/28 04:08:53;;;;;;;7.97;2.33;;;;;;;;;;5055071;28;20068;-67
2021/06/28 04:11:19;;;;;;;9.38;2.30;;;;;;;;;;5054962;28;20531;-67
2021/06/28 04:13:46;;;;;;;6.55;2.10;;;;;;;;;;5054874;28;20029;-67
2021/06/28 04:16:12;;;;;;;11.02;2.58;;;;;;;;;;5054896;28;20027;-67
2021/06/28 04:18:38;;;;;;;7.05;2.10;;;;;;;;;;5054445;28;20025;-67
2021/06/28 04:21:04;;;;;;;10.55;2.35;;;;;;;;;;5054873;28;20033;-67
2021/06/28 04:23:30;;;;;;;6.15;2.75;;;;;;;;;;5054745;28;20029;-67
2021/06/28 04:25:56;;;;;;;11.10;2.30;;;;;;;;;;5054661;28;20029;-67
2021/06/28 04:28:23;;;;;;;8.15;2.25;;;;;;;;;;5054771;28;20044;-68
2021/06/28 04:30:49;;;;;;;11.02;2.80;;;;;;;;;;5054576;28;20021;-68
2021/06/28 04:33:16;;;;;;;9.98;3.10;;;;;;;;;;5054431;28;20057;-68
2021/06/28 04:35:42;;;;;;;9.20;2.55;;;;;;;;;;5054610;28;20036;-67
2021/06/28 04:38:09;;;;;;;11.75;2.38;;;;;;;;;;5053184;28;20112;-67
2021/06/28 04:40:36;;;;;;;15.02;2.60;;;;;;;;;;5054325;28;20036;-67
2021/06/28 04:43:02;;;;;;;10.15;2.40;;;;;;;;;;5054089;28;20492;-67
2021/06/28 04:45:28;;;;;;;13.23;2.70;;;;;;;;;;5054323;28;20477;-68
2021/06/28 04:47:55;;;;;;;15.50;2.53;;;;;;;;;;5054251;28;20044;-67
2021/06/28 04:50:23;;;;;;;20.35;3.45;;;;;;;;;;5054521;28;20029;-67
2021/06/28 04:52:50;;;;;;;29.55;3.30;;;;;;;;;;5054061;28;20032;-67
2021/06/28 04:55:17;;;;;;;18.20;3.05;;;;;;;;;;5053984;28;20452;-67
2021/06/28 04:57:44;;;;;;;24.85;2.92;;;;;;;;;;5053576;28;20092;-67
2021/06/28 05:00:11;;;;;;;13.15;3.30;;;23.60;61.20;;;;;;5054136;28;20592;-67
2021/06/28 05:02:37;;;;;;;16.70;3.05;;;23.50;61.80;;;;;;5053855;28;20035;-67
2021/06/28 05:05:04;;;;;;;11.18;3.83;;;23.50;61.90;;;;;;5052536;28;20025;-67
2021/06/28 05:07:30;;;;;;;17.83;2.97;;;23.50;62.00;;;;;;5053877;28;20029;-67
2021/06/28 05:09:56;;;;;;;14.65;2.72;;;;;;;;;;5053899;28;20377;-67
2021/06/28 05:12:23;;;;;;;15.95;2.90;;;;;;;;;;5053742;28;20067;-67
2021/06/28 05:14:49;;;;;;;14.68;2.80;;;;;;;;;;5053818;28;20028;-67
2021/06/28 05:17:15;;;;;;;13.18;2.47;;;;;;;;;;5053751;28;20021;-67
2021/06/28 05:19:41;;;;;;;17.75;2.90;;;;;;;;;;5053857;28;20050;-67
2021/06/28 05:22:07;;;;;;;9.93;2.58;;;;;;;;;;5053517;28;20028;-67
2021/06/28 05:24:33;;;;;;;16.88;2.60;;;;;;;;;;5053567;28;20029;-67
2021/06/28 05:26:59;;;;;;;9.75;2.72;;;;;;;;;;5053529;28;20059;-67
2021/06/28 05:29:26;;;;;;;15.82;2.80;;;;;;;;;;5053485;28;20098;-67
2021/06/28 05:31:52;;;;;;;11.73;2.45;;;;;;;;;;5053479;28;20096;-67
2021/06/28 05:34:18;;;;;;;9.50;2.42;;;;;;;;;;5053261;28;20040;-67
2021/06/28 05:36:44;;;;;;;8.77;2.47;;;;;;;;;;5053363;28;20108;-67
2021/06/28 05:39:10;;;;;;;10.02;3.00;;;;;;;;;;5053359;28;20544;-67
2021/06/28 05:41:36;;;;;;;5.10;2.33;;;;;;;;;;5053308;28;20066;-67
2021/06/28 05:44:02;;;;;;;8.35;2.30;;;;;;;;;;5053107;28;20049;-67
2021/06/28 05:46:28;;;;;;;5.57;2.67;;;;;;;;;;5053379;28;20029;-67
2021/06/28 05:48:54;;;;;;;5.90;2.65;;;;;;;;;;5053117;28;20115;-67
2021/06/28 05:51:20;;;;;;;8.65;2.38;;;;;;;;;;5053352;28;20358;-67
2021/06/28 05:53:47;;;;;;;4.57;1.90;;;;;;;;;;5053119;28;20059;-67
2021/06/28 05:56:13;;;;;;;5.90;2.05;;;;;;;;;;5053146;28;20511;-67
2021/06/28 05:58:40;;;;;;;9.52;2.42;;;;;;;;;;5053375;28;20025;-68
2021/06/28 06:01:06;;;;;;;7.07;1.92;;;;;;;;;;5053155;28;20397;-67
2021/06/28 06:03:33;;;;;;;8.48;1.90;;;;;;;;;;5052943;28;20044;-67
2021/06/28 06:05:59;;;;;;;8.52;2.17;;;;;;;;;;5052992;28;20036;-67
2021/06/28 06:08:25;;;;;;;10.07;2.05;;;;;;;;;;5051726;28;20033;-67
2021/06/28 06:10:55;;;;;;;6.93;1.90;;;;;;;;;;5056977;28;20484;-67
2021/06/28 06:13:22;;;;;;;6.82;2.47;;;;;;;;;;5057121;28;20032;-67
2021/06/28 06:15:48;;;;;;;7.55;1.98;;;;;;;;;;5057250;28;20108;-68
2021/06/28 06:18:14;;;;;;;5.18;1.90;;;;;;;;;;5057006;28;20104;-67
2021/06/28 06:20:40;;;;;;;5.07;2.10;;;;;;;;;;5057009;28;20466;-68
2021/06/28 06:23:06;;;;;;;7.13;1.73;;;;;;;;;;5056711;28;20024;-67
2021/06/28 06:25:32;;;;;;;3.47;1.98;;;;;;;;;;5057042;28;20021;-68
2021/06/28 06:27:58;;;;;;;9.82;2.10;;;;;;;;;;5056725;28;20025;-67
2021/06/28 06:30:25;;;;;;;5.75;1.77;;;;;;;;;;5056906;28;20036;-67
2021/06/28 06:32:51;;;;;;;8.45;1.90;;;;;;;;;;5056781;28;20021;-67
2021/06/28 06:35:20;;;;;;;11.60;2.13;;;;;;;;;;5056787;28;20037;-67
2021/06/28 06:37:46;;;;;;;5.20;1.85;;;;;;;;;;5056732;28;20017;-67
2021/06/28 06:40:12;;;;;;;4.05;1.70;;;;;;;;;;5056644;28;20104;-67
2021/06/28 06:42:38;;;;;;;7.88;2.38;;;;;;;;;;5057338;28;20100;-67
2021/06/28 06:45:05;;;;;;;10.18;2.08;;;;;;;;;;5055727;28;20041;-67
2021/06/28 06:47:31;;;;;;;7.55;2.10;;;;;;;;;;5056293;28;20462;-67
2021/06/28 06:49:57;;;;;;;3.17;1.73;;;;;;;;;;5056475;28;20469;-67
2021/06/28 06:52:23;;;;;;;5.45;2.15;;;;;;;;;;5056295;28;20032;-67
2021/06/28 06:54:49;;;;;;;10.38;1.65;;;;;;;;;;5056413;28;20021;-67
2021/06/28 06:57:15;;;;;;;9.65;1.73;;;;;;;;;;5056644;28;20380;-67
2021/06/28 06:59:41;;;;;;;7.03;2.15;;;;;;;;;;5056347;28;20109;-67
2021/06/28 07:02:07;;;;;;;5.30;2.03;;;;;;;;;;5056212;28;20025;-67
2021/06/28 07:04:34;;;;;;;3.53;1.55;;;;;;;;;;5056318;28;20017;-66
2021/06/28 07:07:00;;;;;;;5.93;1.73;;;;;;;;;;5056315;28;20434;-68
2021/06/28 07:09:30;;;;;;;5.32;1.75;;;;;;;;;;5056081;28;20033;-67
2021/06/28 07:11:56;;;;;;;6.70;1.80;;;;;;;;;;5055967;28;20025;-67
2021/06/28 07:14:22;;;;;;;4.60;1.83;;;;;;;;;;5056012;28;20021;-67
2021/06/28 07:16:49;;;;;;;6.30;1.65;;;;;;;;;;5055921;28;20029;-68
2021/06/28 07:19:15;;;;;;;4.00;1.50;;;;;;;;;;5055735;28;20100;-68
2021/06/28 07:21:41;;;;;;;9.13;1.90;;;;;;;;;;5055460;28;20067;-67
2021/06/28 07:24:08;;;;;;;5.13;1.52;;;;;;;;;;5055810;28;20072;-68
2021/06/28 07:26:34;;;;;;;9.10;1.92;;;;;;;;;;5055860;28;20036;-67
2021/06/28 07:29:01;;;;;;;5.78;1.80;;;;;;;;;;5055572;28;20037;-67
2021/06/28 07:31:27;;;;;;;4.55;1.85;;;;;;;;;;5055832;28;20029;-67
2021/06/28 07:33:54;;;;;;;5.72;1.67;;;;;;;;;;5055539;28;20041;-67
2021/06/28 07:36:20;;;;;;;4.03;1.67;;;;;;;;;;5055768;28;20021;-67
2021/06/28 07:38:46;;;;;;;6.30;1.85;;;;;;;;;;5055633;28;20029;-68
2021/06/28 07:41:12;;;;;;;7.03;1.67;;;;;;;;;;5055633;28;20024;-68
2021/06/28 07:43:38;;;;;;;4.53;1.80;;;;;;;;;;5055089;28;20131;-67
2021/06/28 07:46:05;;;;;;;6.07;1.80;;;;;;;;;;5055318;28;20100;-68
2021/06/28 07:48:31;;;;;;;5.95;1.88;;;;;;;;;;5055275;28;20503;-67
2021/06/28 07:50:57;;;;;;;5.95;1.63;;;;;;;;;;5055377;28;20075;-68
2021/06/28 07:53:23;;;;;;;3.47;1.60;;;;;;;;;;5054122;28;20459;-68
2021/06/28 07:55:50;;;;;;;8.38;1.70;;;;;;;;;;5055158;28;20027;-68
2021/06/28 07:58:16;;;;;;;9.85;2.65;;;;;;;;;;5055412;28;20032;-68
2021/06/28 08:00:42;;;;;;;9.77;1.80;;;;;;;;;;5055091;28;20079;-68
2021/06/28 08:03:08;;;;;;;5.25;2.13;;;23.60;62.00;;;;;;5055170;28;20037;-68
2021/06/28 08:05:35;;;;;;;10.85;1.80;;;27.40;54.40;;;;;;5055331;28;20025;-67
2021/06/28 08:08:00;;;;;;;6.38;1.77;;;27.30;54.30;;;;;;5055017;28;20033;-67
2021/06/28 08:10:26;;;;;;;7.72;1.90;;;;;;;;;;5055159;28;20469;-68
2021/06/28 08:12:52;;;;;;;4.93;1.60;;;27.40;53.80;;;;;;5054907;28;20028;-68
2021/06/28 08:15:21;;;;;;;8.82;1.75;;;27.40;53.70;;;;;;5054788;28;20059;-68
2021/06/28 08:17:48;;;;;;;4.57;1.67;;;;;;;;;;5054955;28;20029;-67
2021/06/28 08:20:14;;;;;;;7.88;1.58;;;;;;;;;;5055040;28;20025;-68
2021/06/28 08:22:40;;;;;;;8.63;1.73;;;;;;;;;;5054737;28;20021;-68
2021/06/28 08:25:07;;;;;;;9.35;1.70;;;;;;;;;;5054857;28;20112;-67
2021/06/28 08:27:33;;;;;;;4.28;2.03;;;;;;;;;;5054330;28;20028;-68
2021/06/28 08:29:59;;;;;;;10.32;1.85;;;;;;;;;;5054732;28;20033;-67
2021/06/28 08:32:25;;;;;;;3.13;1.50;;;;;;;;;;5053685;28;20032;-68
2021/06/28 08:34:56;;;;;;;6.25;1.80;;;;;;;;;;5054635;28;20025;-68
2021/06/28 08:37:22;;;;;;;9.48;1.85;;;;;;;;;;5054444;28;20032;-68
2021/06/28 08:39:48;;;;;;;5.03;1.77;;;;;;;;;;5054562;28;20032;-68
2021/06/28 08:42:15;;;;;;;5.78;1.48;;;;;;;;;;5054416;28;20032;-67
2021/06/28 08:44:44;;;;;;;6.20;1.70;;;;;;;;;;5054252;28;20099;-67
2021/06/28 08:47:10;;;;;;;6.00;1.60;;;;;;;;;;5054144;28;20031;-67
2021/06/28 08:49:37;;;;;;;7.32;1.77;;;;;;;;;;5054276;28;20116;-67
2021/06/28 08:52:03;;;;;;;3.95;1.52;;;;;;;;;;5054354;28;20027;-67
2021/06/28 08:54:29;;;;;;;2.20;1.40;;;;;;;;;;5054095;28;20029;-68
2021/06/28 08:56:57;;;;;;;4.47;1.48;;;;;;;;;;5054110;28;20028;-67
2021/06/28 08:59:23;;;;;;;5.40;1.45;;;;;;;;;;5053936;28;20469;-67
2021/06/28 09:01:49;;;;;;;4.47;1.20;;;;;;;;;;5054129;28;20397;-67
2021/06/28 09:04:15;;;;;;;5.57;1.20;;;;;;;;;;5054166;28;20035;-67
2021/06/28 09:06:42;;;;;;;8.35;1.15;;;28.00;52.20;;;;;;5053637;28;20021;-67
2021/06/28 09:09:13;;;;;;;3.97;1.17;;;29.00;46.60;;;;;;5053725;28;20037;-67
2021/06/28 09:11:49;;;;;;;8.95;1.40;;;;;;;;;;5053892;28;20028;-67
2021/06/28 09:14:16;;;;;;;3.70;1.40;;;29.10;46.20;;;;;;5053588;28;20036;-67
2021/06/28 09:16:44;;;;;;;3.42;1.45;;;29.20;46.50;;;;;;5053992;28;20017;-67
2021/06/28 09:19:15;;;;;;;3.30;1.40;;;;;;;;;;5053609;28;20493;-67
2021/06/28 09:21:55;;;;;;;4.35;2.08;;;;;;;;;;5053729;28;20104;-67
2021/06/28 09:24:27;;;;;;;7.90;1.48;;;;;;;;;;5053526;28;20025;-67
2021/06/28 09:26:56;;;;;;;5.75;1.65;;;;;;;;;;5053673;28;20178;-67
2021/06/28 09:29:33;;;;;;;4.00;1.55;;;;;;;;;;5053653;28;20083;-67
2021/06/28 09:31:59;;;;;;;4.63;1.30;;;;;;;;;;5053104;28;20017;-67
2021/06/28 09:34:25;;;;;;;4.07;1.90;;;;;;;;;;5053431;28;20051;-67
2021/06/28 09:36:56;;;;;;;5.03;1.38;;;;;;;;;;5053430;28;20021;-67
2021/06/28 09:39:29;;;;;;;7.05;1.52;;;;;;;;;;5053527;28;20469;-67
2021/06/28 09:42:08;;;;;;;3.67;1.30;;;;;;;;;;5053310;28;20083;-68
2021/06/28 09:44:35;;;;;;;5.82;1.38;;;;;;;;;;5052720;28;20044;-68
2021/06/28 09:47:05;;;;;;;7.10;1.30;;;;;;;;;;5053444;28;20029;-67
2021/06/28 09:49:31;;;;;;;4.75;1.25;;;;;;;;;;5053468;28;20116;-67
2021/06/28 09:51:57;;;;;;;3.35;1.20;;;;;;;;;;5053313;28;20035;-67
2021/06/28 09:54:23;;;;;;;3.63;1.40;;;;;;;;;;5053131;28;20381;-67
2021/06/28 09:56:52;;;;;;;2.75;1.30;;;;;;;;;;5053093;28;20370;-67
2021/06/28 09:59:19;;;;;;;3.92;1.20;;;;;;;;;;5053248;28;20400;-67
2021/06/28 10:01:45;;;;;;;5.35;1.20;;;;;;;;;;5053042;28;20139;-67
2021/06/28 10:04:11;;;;;;;7.32;1.20;;;;;;;;;;5053012;28;20029;-67
2021/06/28 10:06:38;;;;;;;3.30;1.27;;;29.20;47.50;;;;;;5052848;28;20106;-67
2021/06/28 10:09:09;;;;;;;5.28;1.20;;;30.50;42.20;;;;;;5052784;28;20025;-67
2021/06/28 10:11:45;;;;;;;4.38;1.67;;;30.50;42.50;;;;;;5053034;28;20021;-67
2021/06/28 10:14:10;;;;;;;4.70;1.30;;;30.50;42.40;;;;;;5052782;28;20056;-68
2021/06/28 10:16:39;;;;;;;7.90;1.30;;;30.50;42.70;;;;;;5052983;28;20029;-68
2021/06/28 10:19:07;;;;;;;5.20;1.58;;;;;;;;;;5052978;28;20029;-68
2021/06/28 10:21:34;;;;;;;4.80;1.48;;;;;;;;;;5051745;28;20500;-68
2021/06/28 10:24:00;;;;;;;6.25;1.60;;;30.60;43.40;;;;;;5052709;28;20032;-67
2021/06/28 10:26:26;;;;;;;6.13;1.67;;;30.80;44.20;;;;;;5052866;28;20028;-68
2021/06/28 10:28:53;;;;;;;4.90;1.40;;;;;;;;;;5052751;28;20076;-68
2021/06/28 10:31:19;;;;;;;5.35;1.30;;;;;;;;;;5052602;28;20029;-68
2021/06/28 10:33:56;;;;;;;6.53;1.60;;;;;;;;;;5052785;28;20033;-67
2021/06/28 10:36:25;;;;;;;11.23;1.55;;;;;;;;;;5052904;28;20021;-67
2021/06/28 10:38:55;;;;;;;5.72;1.25;;;;;;;;;;5052637;28;20056;-67
2021/06/28 10:41:34;;;;;;;3.40;1.30;;;;;;;;;;5052888;28;20014;-68
2021/06/28 10:44:00;;;;;;;5.18;1.50;;;;;;;;;;5052561;28;20052;-67
2021/06/28 10:46:31;;;;;;;4.72;1.45;;;;;;;;;;5052606;28;20442;-67
2021/06/28 10:48:57;;;;;;;4.32;1.40;;;;;;;;;;5052543;28;20076;-68
2021/06/28 10:51:36;;;;;;;4.15;1.52;;;;;;;;;;5052493;28;20019;-68
2021/06/28 10:54:02;;;;;;;5.10;1.13;;;;;;;;;;5052455;28;20420;-67
2021/06/28 10:56:30;;;;;;;5.35;1.20;;;;;;;;;;5055743;28;20469;-67
2021/06/28 10:59:03;;;;;;;2.35;1.10;;;;;;;;;;5056346;28;20067;-68
2021/06/28 11:01:36;;;;;;;6.82;1.30;;;;;;;;;;5056215;28;20469;-67
2021/06/28 11:04:09;;;;;;;6.38;1.65;;;;;;;;;;5056127;28;20032;-67
2021/06/28 11:06:36;;;;;;;6.75;1.30;;;;;;;;;;5056491;28;20393;-67
2021/06/28 11:09:08;;;;;;;4.25;1.75;;;;;;;;;;5056087;28;20033;-68
2021/06/28 11:11:46;;;;;;;12.10;1.52;;;;;;;;;;5056151;28;20354;-67
2021/06/28 11:14:18;;;;;;;6.07;1.35;;;;;;;;;;5055872;28;20051;-68
2021/06/28 11:17:10;;;;;;;2.63;1.25;;;;;;;;;;5056073;28;20032;-69
2021/06/28 11:22:32;;;;;;;5.28;1.25;;;;;;;;;;5055831;28;20081;-67
2021/06/28 11:25:11;;;;;;;3.90;1.30;;;;;;;;;;5055575;28;20108;-68
2021/06/28 11:28:10;;;;;;;3.17;1.63;;;;;;;;;;5055813;28;20028;-68
2021/06/28 11:30:44;;;;;;;5.75;1.40;;;;;;;;;;5022720;28;20486;-68
2021/06/28 11:33:13;;;;;;;7.05;1.10;;;;;;;;;;5055461;28;20021;-69
2021/06/28 11:35:47;;;;;;;4.95;1.40;;;;;;;;;;5055469;28;20063;-68
2021/06/28 11:38:22;;;;;;;5.43;1.30;;;;;;;;;;5055640;28;20021;-68
2021/06/28 11:41:08;;;;;;;2.45;1.25;;;;;;;;;;5055643;28;20028;-67
2021/06/28 11:43:40;;;;;;;4.97;1.00;;;;;;;;;;5044725;28;20045;-68
2021/06/28 11:46:07;;;;;;;4.60;1.20;;;;;;;;;;5055471;28;20025;-67
2021/06/28 11:48:34;;;;;;;7.80;1.10;;;;;;;;;;5055441;28;20481;-67
2021/06/28 11:51:01;;;;;;;4.43;1.20;;;;;;;;;;5054278;28;20113;-68
2021/06/28 11:53:27;;;;;;;4.53;1.00;;;;;;;;;;5055343;28;20043;-67
2021/06/28 11:55:53;;;;;;;4.78;1.10;;;;;;;;;;5055233;28;20021;-68
2021/06/28 11:58:24;;;;;;;5.32;1.23;;;;;;;;;;5055213;28;20538;-68
2021/06/28 12:01:03;;;;;;;3.80;1.00;;;;;;;;;;5055292;28;20092;-68
2021/06/28 12:03:36;;;;;;;3.63;0.90;;;;;;;;;;5055330;28;20143;-68
2021/06/28 12:06:06;;;;;;;1.25;1.05;;;;;;;;;;5054567;28;20029;-68
2021/06/28 12:08:32;;;;;;;2.40;1.00;;;;;;;;;;5054151;28;20056;-67
2021/06/28 12:10:59;;;;;;;2.20;1.00;;;;;;;;;;5055033;28;20031;-68
2021/06/28 12:13:39;;;;;;;6.13;1.30;;;;;;;;;;5053690;28;20388;-68
2021/06/28 12:16:14;;;;;;;3.53;1.00;;;;;;;;;;5055023;28;20025;-68
2021/06/28 12:18:40;;;;;;;3.20;0.93;;;;;;;;;;5054875;28;20111;-67
2021/06/28 12:21:06;;;;;;;3.55;1.10;;;;;;;;;;5054722;28;20467;-67
2021/06/28 12:23:32;;;;;;;2.92;1.00;;;;;;;;;;5054510;28;20465;-68
2021/06/28 12:26:07;;;;;;;2.30;1.02;;;;;;;;;;5054781;28;20021;-68
2021/06/28 12:28:34;;;;;;;1.80;0.90;;;;;;;;;;5054423;28;20037;-68
2021/06/28 12:31:00;;;;;;;3.00;1.00;;;;;;;;;;5054584;28;20023;-68
2021/06/28 12:33:26;;;;;;;2.60;0.88;;;;;;;;;;5054542;28;20025;-67
2021/06/28 12:35:59;;;;;;;3.75;0.90;;;;;;;;;;5054575;28;20021;-68
2021/06/28 12:38:25;;;;;;;1.42;0.90;;;;;;;;;;5054669;28;20035;-67
2021/06/28 12:40:51;;;;;;;2.83;1.08;;;;;;;;;;5054739;28;20029;-68
2021/06/28 12:43:19;;;;;;;2.92;0.90;;;;;;;;;;5054772;28;20041;-68
2021/06/28 12:45:46;;;;;;;11.43;1.42;;;;;;;;;;5054461;28;20411;-68
2021/06/28 12:48:18;;;;;;;5.10;0.85;;;;;;;;;;5054278;28;20456;-68
2021/06/28 12:50:51;;;;;;;4.90;0.90;;;;;;;;;;5054426;28;20101;-68
2021/06/28 12:53:17;;;;;;;2.45;0.88;;;;;;;;;;5054228;28;20028;-68
2021/06/28 12:55:47;;;;;;;2.13;1.00;;;;;;;;;;5054027;28;20032;-68
2021/06/28 12:58:17;;;;;;;3.13;1.10;;;;;;;;;;5054202;28;20114;-68
2021/06/28 13:00:44;;;;;;;6.60;0.80;;;;;;;;;;5054759;28;20025;-68
2021/06/28 13:03:10;;;;;;;3.47;0.82;;;;;;;;;;5053977;28;20104;-67
2021/06/28 13:05:56;;;;;;;3.00;1.02;;;;;;;;;;5053991;28;20024;-68
2021/06/28 13:08:24;;;;;;;31.48;1.92;;;;;;;;;;5054022;28;20511;-68
2021/06/28 13:10:59;;;;;;;8.20;1.25;;;;;;;;;;5053932;28;20020;-68
2021/06/28 13:13:32;;;;;;;4.32;1.20;;;;;;;;;;5053786;28;20032;-68
2021/06/28 13:16:08;;;;;;;1.00;0.77;;;;;;;;;;5053948;28;20040;-68
2021/06/28 13:18:35;;;;;;;2.40;0.90;;;;;;;;;;5053092;28;20040;-68
2021/06/28 13:21:02;;;;;;;2.60;1.00;;;;;;;;;;5053803;28;20028;-68
2021/06/28 13:23:28;;;;;;;2.28;1.02;;;;;;;;;;5053546;28;20377;-67
2021/06/28 13:25:54;;;;;;;3.65;1.10;;;;;;;;;;5053554;28;20410;-68
2021/06/28 13:28:20;;;;;;;5.30;1.10;;;;;;;;;;5053618;28;20040;-68
2021/06/28 13:30:46;;;;;;;4.88;1.27;;;;;;;;;;5053753;28;20053;-68
2021/06/28 13:33:13;;;;;;;4.95;0.90;;;;;;;;;;5053399;28;20029;-67
2021/06/28 13:35:43;;;;;;;13.23;0.95;;;;;;;;;;5053527;28;20024;-67
2021/06/28 13:38:19;;;;;;;1.83;1.00;;;;;;;;;;5053412;28;20024;-68
2021/06/28 13:40:56;;;;;;;5.15;1.00;;;;;;;;;;5053572;28;20071;-68
2021/06/28 13:43:22;;;;;;;12.52;2.15;;;;;;;;;;5053040;28;20051;-68
2021/06/28 13:45:49;;;;;;;1.80;0.90;;;;;;;;;;5053527;28;20103;-68
2021/06/28 13:48:16;;;;;;;1.83;0.70;;;;;;;;;;5053051;28;20031;-68
2021/06/28 13:50:48;;;;;;;4.82;0.80;;;;;;;;;;5053100;28;20037;-67
2021/06/28 13:53:16;;;;;;;5.22;0.73;;;;;;;;;;5053120;28;20104;-67
2021/06/28 13:55:43;;;;;;;3.80;1.00;;;;;;;;;;5052965;28;20100;-67
2021/06/28 13:58:11;;;;;;;1.17;0.70;;;;;;;;;;5053164;28;20028;-67
2021/06/28 14:00:37;;;;;;;2.75;0.77;;;;;;;;;;5053107;28;20173;-67
2021/06/28 14:03:03;;;;;;;5.47;1.10;;;;;;;;;;5053027;28;20025;-67
2021/06/28 14:05:29;;;;;;;1.50;0.73;;;;;;;;;;5052876;28;20036;-67
2021/06/28 14:07:56;;;;;;;2.40;1.02;;;;;;;;;;5053109;28;20025;-67
2021/06/28 14:10:22;;;;;;;2.13;0.80;;;;;;;;;;5053328;28;20061;-67
2021/06/28 14:12:48;;;;;;;4.35;0.80;;;;;;;;;;5053005;28;20021;-68
2021/06/28 14:15:14;;;;;;;3.40;0.70;;;;;;;;;;5053089;28;20040;-68
2021/06/28 14:17:41;;;;;;;5.35;0.93;;;;;;;;;;5052868;28;20025;-67
2021/06/28 14:20:08;;;;;;;4.50;1.02;;;;;;;;;;5052878;28;20036;-68
2021/06/28 14:22:36;;;;;;;6.65;0.90;;;;;;;;;;5053134;28;20025;-67
2021/06/28 14:25:04;;;;;;;3.00;1.10;;;;;;;;;;5053055;28;20104;-67
2021/06/28 14:27:30;;;;;;;3.10;0.90;;;;;;;;;;5052792;28;20025;-67
2021/06/28 14:29:59;;;;;;;2.42;1.02;;;;;;;;;;5053435;28;20090;-68
2021/06/28 14:32:25;;;;;;;8.48;0.98;;;;;;;;;;5056898;28;20036;-67